sensor_id;sensor_type;location;lat;lon;timestamp;P1;durP1;ratioP1;P2;durP2;ratioP2
84958;SDS011;75256;48.062;11.662;2024-01-16T00:01:54;3.42;;;1.45;;
84958;SDS011;75256;48.062;11.662;2024-01-16T00:04:19;1.73;;;0.70;;
84958;SDS011;75256;48.062;11.662;2024-01-16T00:06:47;2.78;;;0.60;;
84958;SDS011;75256;48.062;11.662;2024-01-16T00:09:12;2.53;;;1.08;;
84958;SDS011;75256;48.062;11.662;2024-01-16T00:11:41;0.47;;;0.38;;
84958;SDS011;75256;48.062;11.662;2024-01-16T00:14:07;0.98;;;0.70;;
84958;SDS011;75256;48.062;11.662;2024-01-16T00:16:32;1.50;;;0.63;;
84958;SDS011;75256;48.062;11.662;2024-01-16T00:18:58;2.70;;;1.42;;
84958;SDS011;75256;48.062;11.662;2024-01-16T00:21:23;1.70;;;1.05;;
84958;SDS011;75256;48.062;11.662;2024-01-16T00:23:49;1.70;;;0.90;;
84958;SDS011;75256;48.062;11.662;2024-01-16T00:26:20;2.78;;;1.02;;
84958;SDS011;75256;48.062;11.662;2024-01-16T00:28:46;2.80;;;1.00;;
84958;SDS011;75256;48.062;11.662;2024-01-16T00:31:12;1.05;;;0.85;;
84958;SDS011;75256;48.062;11.662;2024-01-16T00:33:37;2.47;;;1.33;;
84958;SDS011;75256;48.062;11.662;2024-01-16T00:36:03;2.53;;;1.35;;
84958;SDS011;75256;48.062;11.662;2024-01-16T00:38:28;1.75;;;1.05;;
84958;SDS011;75256;48.062;11.662;2024-01-16T00:40:56;1.98;;;1.13;;
84958;SDS011;75256;48.062;11.662;2024-01-16T00:43:22;2.55;;;1.02;;
84958;SDS011;75256;48.062;11.662;2024-01-16T00:45:47;2.08;;;1.50;;
84958;SDS011;75256;48.062;11.662;2024-01-16T00:48:14;1.38;;;0.65;;
84958;SDS011;75256;48.062;11.662;2024-01-16T00:50:40;1.52;;;0.70;;
84958;SDS011;75256;48.062;11.662;2024-01-16T00:53:06;1.67;;;0.65;;
84958;SDS011;75256;48.062;11.662;2024-01-16T00:55:31;0.88;;;0.65;;
84958;SDS011;75256;48.062;11.662;2024-01-16T00:57:59;1.88;;;0.30;;
84958;SDS011;75256;48.062;11.662;2024-01-16T01:00:27;1.25;;;0.73;;
84958;SDS011;75256;48.062;11.662;2024-01-16T01:02:54;1.52;;;1.00;;
84958;SDS011;75256;48.062;11.662;2024-01-16T01:05:20;2.00;;;1.02;;
84958;SDS011;75256;48.062;11.662;2024-01-16T01:07:45;2.10;;;1.02;;
84958;SDS011;75256;48.062;11.662;2024-01-16T01:10:13;2.63;;;0.80;;
84958;SDS011;75256;48.062;11.662;2024-01-16T01:12:39;1.08;;;0.68;;
84958;SDS011;75256;48.062;11.662;2024-01-16T01:15:04;0.77;;;0.65;;
84958;SDS011;75256;48.062;11.662;2024-01-16T01:17:31;0.90;;;0.30;;
84958;SDS011;75256;48.062;11.662;2024-01-16T01:19:56;2.03;;;0.80;;
84958;SDS011;75256;48.062;11.662;2024-01-16T01:22:22;1.67;;;0.68;;
84958;SDS011;75256;48.062;11.662;2024-01-16T01:24:48;0.43;;;0.43;;
84958;SDS011;75256;48.062;11.662;2024-01-16T01:27:13;1.27;;;0.73;;
84958;SDS011;75256;48.062;11.662;2024-01-16T01:29:38;1.75;;;0.70;;
84958;SDS011;75256;48.062;11.662;2024-01-16T01:32:04;1.88;;;0.63;;
84958;SDS011;75256;48.062;11.662;2024-01-16T01:34:29;0.60;;;0.30;;
84958;SDS011;75256;48.062;11.662;2024-01-16T01:36:55;1.33;;;0.60;;
84958;SDS011;75256;48.062;11.662;2024-01-16T01:39:23;0.60;;;0.20;;
84958;SDS011;75256;48.062;11.662;2024-01-16T01:41:48;1.55;;;1.02;;
84958;SDS011;75256;48.062;11.662;2024-01-16T01:44:13;2.28;;;0.50;;
84958;SDS011;75256;48.062;11.662;2024-01-16T01:46:43;0.15;;;0.15;;
84958;SDS011;75256;48.062;11.662;2024-01-16T01:49:10;0.98;;;0.38;;
84958;SDS011;75256;48.062;11.662;2024-01-16T01:51:37;1.38;;;0.65;;
84958;SDS011;75256;48.062;11.662;2024-01-16T01:54:04;1.23;;;0.55;;
84958;SDS011;75256;48.062;11.662;2024-01-16T01:56:30;0.38;;;0.10;;
84958;SDS011;75256;48.062;11.662;2024-01-16T01:58:56;1.63;;;1.08;;
84958;SDS011;75256;48.062;11.662;2024-01-16T02:01:24;0.93;;;0.40;;
84958;SDS011;75256;48.062;11.662;2024-01-16T02:03:54;1.23;;;0.30;;
84958;SDS011;75256;48.062;11.662;2024-01-16T02:06:21;0.90;;;0.43;;
84958;SDS011;75256;48.062;11.662;2024-01-16T02:08:47;1.48;;;0.90;;
84958;SDS011;75256;48.062;11.662;2024-01-16T02:11:13;1.58;;;0.80;;
84958;SDS011;75256;48.062;11.662;2024-01-16T02:13:38;0.90;;;0.70;;
84958;SDS011;75256;48.062;11.662;2024-01-16T02:16:04;1.45;;;0.80;;
84958;SDS011;75256;48.062;11.662;2024-01-16T02:18:33;2.70;;;1.02;;
84958;SDS011;75256;48.062;11.662;2024-01-16T02:21:02;1.00;;;0.50;;
84958;SDS011;75256;48.062;11.662;2024-01-16T02:23:32;1.70;;;0.55;;
84958;SDS011;75256;48.062;11.662;2024-01-16T02:25:58;1.05;;;0.70;;
84958;SDS011;75256;48.062;11.662;2024-01-16T02:28:27;1.55;;;0.75;;
84958;SDS011;75256;48.062;11.662;2024-01-16T02:30:52;1.25;;;0.70;;
84958;SDS011;75256;48.062;11.662;2024-01-16T02:33:18;1.45;;;0.70;;
84958;SDS011;75256;48.062;11.662;2024-01-16T02:35:43;0.73;;;0.20;;
84958;SDS011;75256;48.062;11.662;2024-01-16T02:38:09;3.58;;;0.63;;
84958;SDS011;75256;48.062;11.662;2024-01-16T02:40:34;0.75;;;0.35;;
84958;SDS011;75256;48.062;11.662;2024-01-16T02:43:00;0.20;;;0.20;;
84958;SDS011;75256;48.062;11.662;2024-01-16T02:45:25;1.10;;;0.68;;
84958;SDS011;75256;48.062;11.662;2024-01-16T02:47:51;2.30;;;1.05;;
84958;SDS011;75256;48.062;11.662;2024-01-16T02:50:19;1.48;;;0.75;;
84958;SDS011;75256;48.062;11.662;2024-01-16T02:52:45;0.80;;;0.30;;
84958;SDS011;75256;48.062;11.662;2024-01-16T02:55:10;0.70;;;0.17;;
84958;SDS011;75256;48.062;11.662;2024-01-16T02:57:36;1.17;;;0.95;;
84958;SDS011;75256;48.062;11.662;2024-01-16T03:00:01;1.27;;;0.32;;
84958;SDS011;75256;48.062;11.662;2024-01-16T03:02:29;1.15;;;0.80;;
84958;SDS011;75256;48.062;11.662;2024-01-16T03:04:55;1.05;;;0.50;;
84958;SDS011;75256;48.062;11.662;2024-01-16T03:07:22;2.05;;;0.85;;
84958;SDS011;75256;48.062;11.662;2024-01-16T03:09:48;2.17;;;0.73;;
84958;SDS011;75256;48.062;11.662;2024-01-16T03:12:13;0.30;;;0.22;;
84958;SDS011;75256;48.062;11.662;2024-01-16T03:14:38;0.82;;;0.35;;
84958;SDS011;75256;48.062;11.662;2024-01-16T03:17:04;1.05;;;0.55;;
84958;SDS011;75256;48.062;11.662;2024-01-16T03:19:29;0.10;;;0.05;;
84958;SDS011;75256;48.062;11.662;2024-01-16T03:21:55;2.85;;;0.90;;
84958;SDS011;75256;48.062;11.662;2024-01-16T03:24:23;3.03;;;1.20;;
84958;SDS011;75256;48.062;11.662;2024-01-16T03:26:48;4.00;;;1.10;;
84958;SDS011;75256;48.062;11.662;2024-01-16T03:29:16;1.52;;;1.05;;
84958;SDS011;75256;48.062;11.662;2024-01-16T03:31:41;3.22;;;1.20;;
84958;SDS011;75256;48.062;11.662;2024-01-16T03:34:07;1.98;;;0.77;;
84958;SDS011;75256;48.062;11.662;2024-01-16T03:36:35;1.33;;;0.70;;
84958;SDS011;75256;48.062;11.662;2024-01-16T03:39:01;4.05;;;0.98;;
84958;SDS011;75256;48.062;11.662;2024-01-16T03:41:26;2.72;;;1.48;;
84958;SDS011;75256;48.062;11.662;2024-01-16T03:43:52;0.50;;;0.25;;
84958;SDS011;75256;48.062;11.662;2024-01-16T03:46:20;0.43;;;0.22;;
84958;SDS011;75256;48.062;11.662;2024-01-16T03:48:45;0.43;;;0.32;;
84958;SDS011;75256;48.062;11.662;2024-01-16T03:51:10;2.80;;;0.60;;
84958;SDS011;75256;48.062;11.662;2024-01-16T03:53:36;1.45;;;1.35;;
84958;SDS011;75256;48.062;11.662;2024-01-16T03:56:03;2.13;;;0.50;;
84958;SDS011;75256;48.062;11.662;2024-01-16T03:58:31;5.13;;;1.20;;
84958;SDS011;75256;48.062;11.662;2024-01-16T04:00:59;1.88;;;0.68;;
84958;SDS011;75256;48.062;11.662;2024-01-16T04:03:24;1.60;;;0.90;;
84958;SDS011;75256;48.062;11.662;2024-01-16T04:05:50;1.75;;;0.93;;
84958;SDS011;75256;48.062;11.662;2024-01-16T04:08:15;0.70;;;0.22;;
84958;SDS011;75256;48.062;11.662;2024-01-16T04:10:41;0.85;;;0.32;;
84958;SDS011;75256;48.062;11.662;2024-01-16T04:13:09;2.53;;;0.73;;
84958;SDS011;75256;48.062;11.662;2024-01-16T04:15:37;3.13;;;1.25;;
84958;SDS011;75256;48.062;11.662;2024-01-16T04:18:03;0.40;;;0.10;;
84958;SDS011;75256;48.062;11.662;2024-01-16T04:20:29;1.65;;;0.10;;
84958;SDS011;75256;48.062;11.662;2024-01-16T04:22:57;1.05;;;0.82;;
84958;SDS011;75256;48.062;11.662;2024-01-16T04:25:23;0.22;;;0.22;;
84958;SDS011;75256;48.062;11.662;2024-01-16T04:27:48;1.88;;;0.82;;
84958;SDS011;75256;48.062;11.662;2024-01-16T04:30:13;3.63;;;1.23;;
84958;SDS011;75256;48.062;11.662;2024-01-16T04:32:41;2.33;;;0.80;;
84958;SDS011;75256;48.062;11.662;2024-01-16T04:35:08;1.73;;;0.65;;
84958;SDS011;75256;48.062;11.662;2024-01-16T04:37:34;0.93;;;0.32;;
84958;SDS011;75256;48.062;11.662;2024-01-16T04:39:59;2.05;;;0.65;;
84958;SDS011;75256;48.062;11.662;2024-01-16T04:42:27;1.40;;;0.93;;
84958;SDS011;75256;48.062;11.662;2024-01-16T04:44:53;1.33;;;0.63;;
84958;SDS011;75256;48.062;11.662;2024-01-16T04:47:19;0.10;;;0.10;;
84958;SDS011;75256;48.062;11.662;2024-01-16T04:49:44;3.58;;;0.85;;
84958;SDS011;75256;48.062;11.662;2024-01-16T04:52:10;1.40;;;0.52;;
84958;SDS011;75256;48.062;11.662;2024-01-16T04:54:35;0.10;;;0.10;;
84958;SDS011;75256;48.062;11.662;2024-01-16T04:57:01;1.17;;;0.43;;
84958;SDS011;75256;48.062;11.662;2024-01-16T04:59:26;3.00;;;0.40;;
84958;SDS011;75256;48.062;11.662;2024-01-16T05:01:52;2.95;;;1.00;;
84958;SDS011;75256;48.062;11.662;2024-01-16T05:04:17;1.50;;;0.63;;
84958;SDS011;75256;48.062;11.662;2024-01-16T05:06:43;2.38;;;0.93;;
84958;SDS011;75256;48.062;11.662;2024-01-16T05:09:08;3.45;;;1.27;;
84958;SDS011;75256;48.062;11.662;2024-01-16T05:11:37;4.75;;;2.15;;
84958;SDS011;75256;48.062;11.662;2024-01-16T05:14:02;2.47;;;1.92;;
84958;SDS011;75256;48.062;11.662;2024-01-16T05:16:28;3.40;;;2.05;;
84958;SDS011;75256;48.062;11.662;2024-01-16T05:18:55;2.97;;;1.80;;
84958;SDS011;75256;48.062;11.662;2024-01-16T05:21:21;1.75;;;1.23;;
84958;SDS011;75256;48.062;11.662;2024-01-16T05:23:48;2.03;;;1.15;;
84958;SDS011;75256;48.062;11.662;2024-01-16T05:26:14;2.33;;;1.50;;
84958;SDS011;75256;48.062;11.662;2024-01-16T05:28:41;4.05;;;1.80;;
84958;SDS011;75256;48.062;11.662;2024-01-16T05:31:07;3.97;;;1.55;;
84958;SDS011;75256;48.062;11.662;2024-01-16T05:33:32;3.83;;;1.48;;
84958;SDS011;75256;48.062;11.662;2024-01-16T05:35:58;3.58;;;1.15;;
84958;SDS011;75256;48.062;11.662;2024-01-16T05:38:23;3.20;;;1.10;;
84958;SDS011;75256;48.062;11.662;2024-01-16T05:40:48;5.50;;;1.58;;
84958;SDS011;75256;48.062;11.662;2024-01-16T05:43:14;2.80;;;1.58;;
84958;SDS011;75256;48.062;11.662;2024-01-16T05:45:41;1.10;;;0.52;;
84958;SDS011;75256;48.062;11.662;2024-01-16T05:48:07;2.95;;;1.63;;
84958;SDS011;75256;48.062;11.662;2024-01-16T05:50:34;5.28;;;1.95;;
84958;SDS011;75256;48.062;11.662;2024-01-16T05:53:02;4.35;;;1.13;;
84958;SDS011;75256;48.062;11.662;2024-01-16T05:55:28;2.53;;;1.23;;
84958;SDS011;75256;48.062;11.662;2024-01-16T05:57:54;3.30;;;1.50;;
84958;SDS011;75256;48.062;11.662;2024-01-16T06:00:24;2.58;;;1.23;;
84958;SDS011;75256;48.062;11.662;2024-01-16T06:02:49;3.63;;;1.65;;
84958;SDS011;75256;48.062;11.662;2024-01-16T06:05:15;4.25;;;1.63;;
84958;SDS011;75256;48.062;11.662;2024-01-16T06:07:40;4.13;;;1.60;;
84958;SDS011;75256;48.062;11.662;2024-01-16T06:10:08;2.88;;;1.63;;
84958;SDS011;75256;48.062;11.662;2024-01-16T06:12:34;4.50;;;2.00;;
84958;SDS011;75256;48.062;11.662;2024-01-16T06:14:59;1.83;;;1.13;;
84958;SDS011;75256;48.062;11.662;2024-01-16T06:17:27;2.88;;;1.33;;
84958;SDS011;75256;48.062;11.662;2024-01-16T06:19:52;2.55;;;1.40;;
84958;SDS011;75256;48.062;11.662;2024-01-16T06:22:18;3.25;;;1.17;;
84958;SDS011;75256;48.062;11.662;2024-01-16T06:24:43;2.97;;;1.20;;
84958;SDS011;75256;48.062;11.662;2024-01-16T06:27:09;2.83;;;1.33;;
84958;SDS011;75256;48.062;11.662;2024-01-16T06:29:34;6.63;;;3.50;;
84958;SDS011;75256;48.062;11.662;2024-01-16T06:31:59;8.07;;;2.60;;
84958;SDS011;75256;48.062;11.662;2024-01-16T06:34:27;5.10;;;2.13;;
84958;SDS011;75256;48.062;11.662;2024-01-16T06:36:53;4.72;;;2.25;;
84958;SDS011;75256;48.062;11.662;2024-01-16T06:39:21;4.55;;;2.20;;
84958;SDS011;75256;48.062;11.662;2024-01-16T06:41:47;4.90;;;2.03;;
84958;SDS011;75256;48.062;11.662;2024-01-16T06:44:12;5.15;;;2.67;;
84958;SDS011;75256;48.062;11.662;2024-01-16T06:46:40;5.22;;;2.30;;
84958;SDS011;75256;48.062;11.662;2024-01-16T06:49:05;5.32;;;2.15;;
84958;SDS011;75256;48.062;11.662;2024-01-16T06:51:31;4.53;;;1.85;;
84958;SDS011;75256;48.062;11.662;2024-01-16T06:53:57;4.28;;;1.98;;
84958;SDS011;75256;48.062;11.662;2024-01-16T06:56:24;5.45;;;1.85;;
84958;SDS011;75256;48.062;11.662;2024-01-16T06:58:50;5.68;;;2.30;;
84958;SDS011;75256;48.062;11.662;2024-01-16T07:01:18;5.45;;;2.05;;
84958;SDS011;75256;48.062;11.662;2024-01-16T07:03:43;3.03;;;1.25;;
84958;SDS011;75256;48.062;11.662;2024-01-16T07:06:09;5.22;;;1.80;;
84958;SDS011;75256;48.062;11.662;2024-01-16T07:08:37;3.15;;;1.35;;
84958;SDS011;75256;48.062;11.662;2024-01-16T07:11:07;5.82;;;1.88;;
84958;SDS011;75256;48.062;11.662;2024-01-16T07:13:37;3.72;;;1.52;;
84958;SDS011;75256;48.062;11.662;2024-01-16T07:16:03;1.15;;;0.63;;
84958;SDS011;75256;48.062;11.662;2024-01-16T07:18:30;4.32;;;1.88;;
84958;SDS011;75256;48.062;11.662;2024-01-16T07:20:56;5.18;;;1.88;;
84958;SDS011;75256;48.062;11.662;2024-01-16T07:23:23;4.25;;;2.10;;
84958;SDS011;75256;48.062;11.662;2024-01-16T07:25:49;2.90;;;1.63;;
84958;SDS011;75256;48.062;11.662;2024-01-16T07:28:14;3.42;;;1.80;;
84958;SDS011;75256;48.062;11.662;2024-01-16T07:30:40;3.65;;;1.63;;
84958;SDS011;75256;48.062;11.662;2024-01-16T07:33:07;3.67;;;1.75;;
84958;SDS011;75256;48.062;11.662;2024-01-16T07:35:33;4.07;;;2.17;;
84958;SDS011;75256;48.062;11.662;2024-01-16T07:37:58;5.53;;;1.85;;
84958;SDS011;75256;48.062;11.662;2024-01-16T07:40:24;2.83;;;1.67;;
84958;SDS011;75256;48.062;11.662;2024-01-16T07:42:51;4.22;;;2.50;;
84958;SDS011;75256;48.062;11.662;2024-01-16T07:45:17;4.85;;;2.08;;
84958;SDS011;75256;48.062;11.662;2024-01-16T07:47:47;6.63;;;2.50;;
84958;SDS011;75256;48.062;11.662;2024-01-16T07:50:12;4.32;;;2.08;;
84958;SDS011;75256;48.062;11.662;2024-01-16T07:52:38;6.72;;;1.98;;
84958;SDS011;75256;48.062;11.662;2024-01-16T07:55:04;3.20;;;1.70;;
84958;SDS011;75256;48.062;11.662;2024-01-16T07:57:29;1.73;;;0.98;;
84958;SDS011;75256;48.062;11.662;2024-01-16T07:59:55;4.85;;;1.83;;
84958;SDS011;75256;48.062;11.662;2024-01-16T08:02:20;2.92;;;1.60;;
84958;SDS011;75256;48.062;11.662;2024-01-16T08:04:46;5.18;;;3.13;;
84958;SDS011;75256;48.062;11.662;2024-01-16T08:07:11;6.20;;;2.70;;
84958;SDS011;75256;48.062;11.662;2024-01-16T08:09:37;7.15;;;2.10;;
84958;SDS011;75256;48.062;11.662;2024-01-16T08:12:02;5.40;;;2.10;;
84958;SDS011;75256;48.062;11.662;2024-01-16T08:14:30;3.17;;;1.35;;
84958;SDS011;75256;48.062;11.662;2024-01-16T08:16:55;1.70;;;1.23;;
84958;SDS011;75256;48.062;11.662;2024-01-16T08:19:21;4.35;;;1.85;;
84958;SDS011;75256;48.062;11.662;2024-01-16T08:21:46;6.78;;;2.35;;
84958;SDS011;75256;48.062;11.662;2024-01-16T08:24:15;4.18;;;2.55;;
84958;SDS011;75256;48.062;11.662;2024-01-16T08:26:40;4.10;;;1.85;;
84958;SDS011;75256;48.062;11.662;2024-01-16T08:29:05;5.70;;;1.70;;
84958;SDS011;75256;48.062;11.662;2024-01-16T08:31:31;3.13;;;1.27;;
84958;SDS011;75256;48.062;11.662;2024-01-16T08:33:56;3.30;;;1.77;;
84958;SDS011;75256;48.062;11.662;2024-01-16T08:36:22;6.80;;;1.67;;
84958;SDS011;75256;48.062;11.662;2024-01-16T08:38:50;3.15;;;1.45;;
84958;SDS011;75256;48.062;11.662;2024-01-16T08:41:15;2.95;;;1.42;;
84958;SDS011;75256;48.062;11.662;2024-01-16T08:43:41;4.20;;;2.13;;
84958;SDS011;75256;48.062;11.662;2024-01-16T08:46:06;4.50;;;1.70;;
84958;SDS011;75256;48.062;11.662;2024-01-16T08:48:32;4.35;;;1.77;;
84958;SDS011;75256;48.062;11.662;2024-01-16T08:50:59;3.42;;;1.35;;
84958;SDS011;75256;48.062;11.662;2024-01-16T08:53:27;3.88;;;2.08;;
84958;SDS011;75256;48.062;11.662;2024-01-16T08:55:55;3.38;;;1.63;;
84958;SDS011;75256;48.062;11.662;2024-01-16T08:58:21;3.35;;;1.42;;
84958;SDS011;75256;48.062;11.662;2024-01-16T09:00:49;3.85;;;1.75;;
84958;SDS011;75256;48.062;11.662;2024-01-16T09:03:16;2.80;;;1.40;;
84958;SDS011;75256;48.062;11.662;2024-01-16T09:05:44;3.22;;;1.40;;
84958;SDS011;75256;48.062;11.662;2024-01-16T09:08:09;3.50;;;1.67;;
84958;SDS011;75256;48.062;11.662;2024-01-16T09:10:35;3.95;;;1.50;;
84958;SDS011;75256;48.062;11.662;2024-01-16T09:13:00;5.50;;;1.70;;
84958;SDS011;75256;48.062;11.662;2024-01-16T09:15:26;2.72;;;1.17;;
84958;SDS011;75256;48.062;11.662;2024-01-16T09:17:53;2.47;;;0.75;;
84958;SDS011;75256;48.062;11.662;2024-01-16T09:20:24;6.03;;;2.00;;
84958;SDS011;75256;48.062;11.662;2024-01-16T09:22:50;1.83;;;1.27;;
84958;SDS011;75256;48.062;11.662;2024-01-16T09:25:17;3.05;;;1.73;;
84958;SDS011;75256;48.062;11.662;2024-01-16T09:27:45;3.53;;;1.58;;
84958;SDS011;75256;48.062;11.662;2024-01-16T09:30:11;2.22;;;1.15;;
84958;SDS011;75256;48.062;11.662;2024-01-16T09:32:37;2.92;;;1.30;;
84958;SDS011;75256;48.062;11.662;2024-01-16T09:35:03;3.03;;;1.67;;
84958;SDS011;75256;48.062;11.662;2024-01-16T09:37:34;4.47;;;1.55;;
84958;SDS011;75256;48.062;11.662;2024-01-16T09:40:03;3.13;;;1.35;;
84958;SDS011;75256;48.062;11.662;2024-01-16T09:42:32;3.55;;;1.77;;
84958;SDS011;75256;48.062;11.662;2024-01-16T09:44:58;3.50;;;1.52;;
84958;SDS011;75256;48.062;11.662;2024-01-16T09:47:28;2.65;;;1.27;;
84958;SDS011;75256;48.062;11.662;2024-01-16T09:49:57;2.63;;;1.55;;
84958;SDS011;75256;48.062;11.662;2024-01-16T09:52:23;3.15;;;1.60;;
84958;SDS011;75256;48.062;11.662;2024-01-16T09:54:49;2.83;;;1.13;;
84958;SDS011;75256;48.062;11.662;2024-01-16T09:57:14;3.28;;;1.65;;
84958;SDS011;75256;48.062;11.662;2024-01-16T09:59:40;4.07;;;1.55;;
84958;SDS011;75256;48.062;11.662;2024-01-16T10:02:07;2.60;;;1.20;;
84958;SDS011;75256;48.062;11.662;2024-01-16T10:04:34;3.28;;;0.32;;
84958;SDS011;75256;48.062;11.662;2024-01-16T10:06:59;2.85;;;1.80;;
84958;SDS011;75256;48.062;11.662;2024-01-16T10:09:28;1.48;;;0.70;;
84958;SDS011;75256;48.062;11.662;2024-01-16T10:11:54;1.77;;;1.17;;
84958;SDS011;75256;48.062;11.662;2024-01-16T10:14:20;2.53;;;1.15;;
84958;SDS011;75256;48.062;11.662;2024-01-16T10:19:31;2.58;;;1.13;;
84958;SDS011;75256;48.062;11.662;2024-01-16T10:22:03;2.85;;;0.90;;
84958;SDS011;75256;48.062;11.662;2024-01-16T10:24:32;4.15;;;1.50;;
84958;SDS011;75256;48.062;11.662;2024-01-16T10:27:00;3.17;;;1.05;;
84958;SDS011;75256;48.062;11.662;2024-01-16T10:29:27;3.58;;;1.50;;
84958;SDS011;75256;48.062;11.662;2024-01-16T10:31:53;5.53;;;1.80;;
84958;SDS011;75256;48.062;11.662;2024-01-16T10:34:19;3.47;;;1.45;;
84958;SDS011;75256;48.062;11.662;2024-01-16T10:36:49;5.15;;;1.95;;
84958;SDS011;75256;48.062;11.662;2024-01-16T10:39:15;2.60;;;0.93;;
84958;SDS011;75256;48.062;11.662;2024-01-16T10:41:56;5.03;;;1.70;;
84958;SDS011;75256;48.062;11.662;2024-01-16T10:44:24;4.28;;;1.17;;
84958;SDS011;75256;48.062;11.662;2024-01-16T10:46:50;6.78;;;1.63;;
84958;SDS011;75256;48.062;11.662;2024-01-16T10:49:15;0.95;;;0.40;;
84958;SDS011;75256;48.062;11.662;2024-01-16T10:51:46;1.02;;;0.70;;
84958;SDS011;75256;48.062;11.662;2024-01-16T10:54:14;0.10;;;0.00;;
84958;SDS011;75256;48.062;11.662;2024-01-16T10:56:46;2.20;;;0.80;;
84958;SDS011;75256;48.062;11.662;2024-01-16T10:59:16;2.95;;;1.42;;
84958;SDS011;75256;48.062;11.662;2024-01-16T11:01:45;4.35;;;1.42;;
84958;SDS011;75256;48.062;11.662;2024-01-16T11:04:20;3.90;;;1.10;;
84958;SDS011;75256;48.062;11.662;2024-01-16T11:06:50;1.67;;;0.90;;
84958;SDS011;75256;48.062;11.662;2024-01-16T11:09:17;2.42;;;0.88;;
84958;SDS011;75256;48.062;11.662;2024-01-16T11:11:46;2.72;;;0.75;;
84958;SDS011;75256;48.062;11.662;2024-01-16T11:14:14;2.00;;;0.82;;
84958;SDS011;75256;48.062;11.662;2024-01-16T11:16:42;2.08;;;1.30;;
84958;SDS011;75256;48.062;11.662;2024-01-16T11:19:08;1.80;;;0.82;;
84958;SDS011;75256;48.062;11.662;2024-01-16T11:21:35;2.25;;;0.80;;
84958;SDS011;75256;48.062;11.662;2024-01-16T11:24:01;0.75;;;0.43;;
84958;SDS011;75256;48.062;11.662;2024-01-16T11:26:27;1.92;;;0.70;;
84958;SDS011;75256;48.062;11.662;2024-01-16T11:28:54;2.92;;;0.80;;
84958;SDS011;75256;48.062;11.662;2024-01-16T11:31:31;2.90;;;0.95;;
84958;SDS011;75256;48.062;11.662;2024-01-16T11:33:59;1.67;;;0.70;;
84958;SDS011;75256;48.062;11.662;2024-01-16T11:39:20;2.13;;;0.82;;
84958;SDS011;75256;48.062;11.662;2024-01-16T11:41:53;3.08;;;0.82;;
84958;SDS011;75256;48.062;11.662;2024-01-16T11:44:36;2.25;;;0.82;;
84958;SDS011;75256;48.062;11.662;2024-01-16T11:47:03;1.20;;;0.68;;
84958;SDS011;75256;48.062;11.662;2024-01-16T11:49:32;4.07;;;0.98;;
84958;SDS011;75256;48.062;11.662;2024-01-16T11:51:58;2.80;;;0.70;;
84958;SDS011;75256;48.062;11.662;2024-01-16T11:54:23;1.45;;;0.73;;
84958;SDS011;75256;48.062;11.662;2024-01-16T12:01:52;0.90;;;0.38;;
84958;SDS011;75256;48.062;11.662;2024-01-16T12:04:18;3.08;;;0.88;;
84958;SDS011;75256;48.062;11.662;2024-01-16T12:06:56;1.42;;;0.70;;
84958;SDS011;75256;48.062;11.662;2024-01-16T12:09:28;2.60;;;1.13;;
84958;SDS011;75256;48.062;11.662;2024-01-16T12:11:59;1.13;;;0.35;;
84958;SDS011;75256;48.062;11.662;2024-01-16T12:14:26;2.10;;;1.10;;
84958;SDS011;75256;48.062;11.662;2024-01-16T12:16:52;1.95;;;0.70;;
84958;SDS011;75256;48.062;11.662;2024-01-16T12:19:18;2.40;;;0.85;;
84958;SDS011;75256;48.062;11.662;2024-01-16T12:21:43;2.20;;;0.73;;
84958;SDS011;75256;48.062;11.662;2024-01-16T12:24:10;2.58;;;0.90;;
84958;SDS011;75256;48.062;11.662;2024-01-16T12:26:35;3.00;;;0.90;;
84958;SDS011;75256;48.062;11.662;2024-01-16T12:29:04;1.90;;;1.02;;
84958;SDS011;75256;48.062;11.662;2024-01-16T12:31:32;3.35;;;0.98;;
84958;SDS011;75256;48.062;11.662;2024-01-16T12:34:04;3.58;;;0.90;;
84958;SDS011;75256;48.062;11.662;2024-01-16T12:36:33;3.15;;;1.02;;
84958;SDS011;75256;48.062;11.662;2024-01-16T12:38:59;3.88;;;2.30;;
84958;SDS011;75256;48.062;11.662;2024-01-16T12:41:24;2.40;;;1.60;;
84958;SDS011;75256;48.062;11.662;2024-01-16T12:43:51;1.63;;;0.90;;
84958;SDS011;75256;48.062;11.662;2024-01-16T12:46:17;2.03;;;1.00;;
84958;SDS011;75256;48.062;11.662;2024-01-16T12:48:44;2.30;;;0.70;;
84958;SDS011;75256;48.062;11.662;2024-01-16T12:51:16;1.10;;;0.70;;
84958;SDS011;75256;48.062;11.662;2024-01-16T12:53:46;1.55;;;0.68;;
84958;SDS011;75256;48.062;11.662;2024-01-16T12:56:12;2.65;;;0.85;;
84958;SDS011;75256;48.062;11.662;2024-01-16T12:58:37;2.35;;;0.90;;
84958;SDS011;75256;48.062;11.662;2024-01-16T13:03:48;1.17;;;0.60;;
84958;SDS011;75256;48.062;11.662;2024-01-16T13:06:18;1.67;;;0.93;;
84958;SDS011;75256;48.062;11.662;2024-01-16T13:08:45;3.60;;;0.50;;
84958;SDS011;75256;48.062;11.662;2024-01-16T13:11:13;1.92;;;0.85;;
84958;SDS011;75256;48.062;11.662;2024-01-16T13:13:44;1.88;;;0.75;;
84958;SDS011;75256;48.062;11.662;2024-01-16T13:16:16;1.58;;;0.93;;
84958;SDS011;75256;48.062;11.662;2024-01-16T13:18:44;1.02;;;0.57;;
84958;SDS011;75256;48.062;11.662;2024-01-16T13:21:09;2.30;;;0.88;;
84958;SDS011;75256;48.062;11.662;2024-01-16T13:23:37;1.23;;;1.10;;
84958;SDS011;75256;48.062;11.662;2024-01-16T13:26:03;1.63;;;0.73;;
84958;SDS011;75256;48.062;11.662;2024-01-16T13:28:34;1.95;;;1.08;;
84958;SDS011;75256;48.062;11.662;2024-01-16T13:31:00;3.10;;;1.00;;
84958;SDS011;75256;48.062;11.662;2024-01-16T13:33:28;1.45;;;0.98;;
84958;SDS011;75256;48.062;11.662;2024-01-16T13:35:54;2.58;;;1.00;;
84958;SDS011;75256;48.062;11.662;2024-01-16T13:38:19;1.98;;;1.15;;
84958;SDS011;75256;48.062;11.662;2024-01-16T13:40:48;2.00;;;1.20;;
84958;SDS011;75256;48.062;11.662;2024-01-16T13:43:17;1.85;;;0.90;;
84958;SDS011;75256;48.062;11.662;2024-01-16T13:45:43;1.70;;;0.90;;
84958;SDS011;75256;48.062;11.662;2024-01-16T13:48:15;1.50;;;0.70;;
84958;SDS011;75256;48.062;11.662;2024-01-16T13:50:43;2.00;;;1.10;;
84958;SDS011;75256;48.062;11.662;2024-01-16T13:53:11;3.35;;;1.08;;
84958;SDS011;75256;48.062;11.662;2024-01-16T13:55:39;5.07;;;1.63;;
84958;SDS011;75256;48.062;11.662;2024-01-16T13:58:06;3.67;;;1.90;;
84958;SDS011;75256;48.062;11.662;2024-01-16T14:00:31;5.70;;;1.60;;
84958;SDS011;75256;48.062;11.662;2024-01-16T14:02:56;4.65;;;1.95;;
84958;SDS011;75256;48.062;11.662;2024-01-16T14:05:22;3.83;;;1.40;;
84958;SDS011;75256;48.062;11.662;2024-01-16T14:07:51;2.28;;;1.27;;
84958;SDS011;75256;48.062;11.662;2024-01-16T14:10:18;3.33;;;1.25;;
84958;SDS011;75256;48.062;11.662;2024-01-16T14:12:44;3.83;;;1.00;;
84958;SDS011;75256;48.062;11.662;2024-01-16T14:15:15;3.38;;;1.35;;
84958;SDS011;75256;48.062;11.662;2024-01-16T14:17:51;3.75;;;1.33;;
84958;SDS011;75256;48.062;11.662;2024-01-16T14:20:18;3.53;;;1.30;;
84958;SDS011;75256;48.062;11.662;2024-01-16T14:22:47;3.20;;;1.10;;
84958;SDS011;75256;48.062;11.662;2024-01-16T14:25:13;3.15;;;1.23;;
84958;SDS011;75256;48.062;11.662;2024-01-16T14:27:47;2.63;;;1.23;;
84958;SDS011;75256;48.062;11.662;2024-01-16T14:30:14;3.08;;;1.25;;
84958;SDS011;75256;48.062;11.662;2024-01-16T14:32:41;3.45;;;1.75;;
84958;SDS011;75256;48.062;11.662;2024-01-16T14:35:10;2.97;;;1.50;;
84958;SDS011;75256;48.062;11.662;2024-01-16T14:37:38;3.42;;;1.25;;
84958;SDS011;75256;48.062;11.662;2024-01-16T14:40:04;3.70;;;1.23;;
84958;SDS011;75256;48.062;11.662;2024-01-16T14:42:37;2.47;;;1.08;;
84958;SDS011;75256;48.062;11.662;2024-01-16T14:45:03;2.60;;;1.38;;